PWSweather.com
Personal Weather Stations
Station Observations
SUBOTICARS
SuboticaYU

SuboticaYU

Lat: 46.1296717, Lon: 19.641551

Elevation: 361

Station Type: Nexus

http://sumeteo.info

Latest ConditionsUpdated 11:50:01 AM GMT+01:01 Friday, Jan 30, 2015
Currently Today's Max Today's Min Today's Average
Temperature 46.2°F7.9°C 46.2°F7.9°C 35.8°F2.1°C 39.6°F4.2°C
Dew Point 38.4°F3.6°C 38.4°F3.6°C 31.4°F-0.3°C 34.4°F1.3°C
Winds 15.0 mph SW24.1 kmh SW 16.1 mph S25.9 kmh S - 9.7 mph 15.6 kmh
Wind Gusts 20.7 mph33.3 kmh 23.0 mph37.0 kmh - -
Humidity 74% 84% 74% 82%
Pressure 28.98 in981.4 mb 29.39 in995.3 mb 28.98 in981.4 mb -
Precipitation - 0.01 in0.3 mm - -
Hour Temp Dew Point Humidity Winds Wind Gusts Pressure Precip Precip Rate Daily Precip Total
11:50 AM 46.2°F7.9°C 38.4°F3.6°C 74% 15.0 mph SW24.1 kmh SW 20.7 mph33.3 kmh 28.98 in981.4 mb 0.00 in0.0 mm 0.00 in/hr0.0 mm/hr 0.01 in0.3 mm
11:40 AM 46.0°F7.8°C 38.2°F3.4°C 74% 15.0 mph SSE24.1 kmh SSE 23.0 mph37.0 kmh 28.98 in981.4 mb 0.00 in0.0 mm 0.00 in/hr0.0 mm/hr 0.01 in0.3 mm
11:30 AM 45.7°F7.6°C 37.9°F3.3°C 74% 16.1 mph S25.9 kmh S 17.3 mph27.8 kmh 29.00 in982.1 mb 0.00 in0.0 mm 0.00 in/hr0.0 mm/hr 0.01 in0.3 mm
11:20 AM 45.5°F7.5°C 38.4°F3.6°C 76% 13.8 mph SSE22.2 kmh SSE 20.7 mph33.3 kmh 29.00 in982.1 mb 0.00 in0.0 mm 0.00 in/hr0.0 mm/hr 0.01 in0.3 mm
11:10 AM 45.0°F7.2°C 37.8°F3.2°C 76% 12.7 mph SE20.4 kmh SE 13.8 mph22.2 kmh 29.01 in982.4 mb 0.00 in0.0 mm 0.00 in/hr0.0 mm/hr 0.01 in0.3 mm
11:00 AM 44.4°F6.9°C 37.7°F3.2°C 77% 12.7 mph SE20.4 kmh SE 17.3 mph27.8 kmh 29.01 in982.4 mb 0.00 in0.0 mm 0.00 in/hr0.0 mm/hr 0.01 in0.3 mm
10:50 AM 44.1°F6.7°C 38.0°F3.3°C 79% 12.7 mph S20.4 kmh S 15.0 mph24.1 kmh 29.02 in982.7 mb 0.00 in0.0 mm 0.00 in/hr0.0 mm/hr 0.01 in0.3 mm
10:40 AM 43.5°F6.4°C 37.4°F3.0°C 79% 12.7 mph SSE20.4 kmh SSE 18.4 mph29.6 kmh 29.02 in982.7 mb 0.00 in0.0 mm 0.00 in/hr0.0 mm/hr 0.01 in0.3 mm
10:30 AM 43.3°F6.3°C 37.3°F2.9°C 79% 13.8 mph S22.2 kmh S 13.8 mph22.2 kmh 29.04 in983.4 mb 0.00 in0.0 mm 0.00 in/hr0.0 mm/hr 0.01 in0.3 mm
10:20 AM 43.5°F6.4°C 37.4°F3.0°C 79% 13.8 mph SSE22.2 kmh SSE 19.6 mph31.5 kmh 29.04 in983.4 mb 0.00 in0.0 mm 0.00 in/hr0.0 mm/hr 0.01 in0.3 mm
10:10 AM 43.2°F6.2°C 37.1°F2.8°C 79% 15.0 mph S24.1 kmh S 18.4 mph29.6 kmh 29.05 in983.7 mb 0.00 in0.0 mm 0.00 in/hr0.0 mm/hr 0.01 in0.3 mm
10:00 AM 43.0°F6.1°C 36.9°F2.7°C 79% 13.8 mph SE22.2 kmh SE 18.4 mph29.6 kmh 29.05 in983.7 mb 0.00 in0.0 mm 0.00 in/hr0.0 mm/hr 0.01 in0.3 mm
09:50 AM 43.0°F6.1°C 36.9°F2.7°C 79% 12.7 mph SE20.4 kmh SE 17.3 mph27.8 kmh 29.07 in984.4 mb 0.00 in0.0 mm 0.00 in/hr0.0 mm/hr 0.01 in0.3 mm
09:40 AM 42.8°F6.0°C 36.7°F2.6°C 79% 13.8 mph SW22.2 kmh SW 11.5 mph18.5 kmh 29.07 in984.4 mb 0.00 in0.0 mm 0.00 in/hr0.0 mm/hr 0.01 in0.3 mm
09:30 AM 42.4°F5.8°C 36.4°F2.4°C 79% 11.5 mph SE18.5 kmh SE 19.6 mph31.5 kmh 29.08 in984.8 mb 0.00 in0.0 mm 0.00 in/hr0.0 mm/hr 0.01 in0.3 mm
09:20 AM 42.3°F5.7°C 36.5°F2.5°C 80% 9.2 mph S14.8 kmh S 8.1 mph13.0 kmh 29.08 in984.8 mb 0.00 in0.0 mm 0.00 in/hr0.0 mm/hr 0.01 in0.3 mm
09:10 AM 42.1°F5.6°C 36.4°F2.4°C 80% 11.5 mph S18.5 kmh S 9.2 mph14.8 kmh 29.10 in985.4 mb 0.00 in0.0 mm 0.00 in/hr0.0 mm/hr 0.01 in0.3 mm
09:00 AM 41.9°F5.5°C 36.2°F2.3°C 80% 10.4 mph SSE16.7 kmh SSE 10.4 mph16.7 kmh 29.10 in985.4 mb 0.00 in0.0 mm 0.00 in/hr0.0 mm/hr 0.01 in0.3 mm
08:50 AM 41.7°F5.4°C 36.0°F2.2°C 80% 11.5 mph SSE18.5 kmh SSE 6.9 mph11.1 kmh 29.09 in985.1 mb 0.00 in0.0 mm 0.00 in/hr0.0 mm/hr 0.01 in0.3 mm
08:40 AM 41.5°F5.3°C 35.8°F2.1°C 80% 11.5 mph S18.5 kmh S 10.4 mph16.7 kmh 29.09 in985.1 mb 0.00 in0.0 mm 0.00 in/hr0.0 mm/hr 0.01 in0.3 mm
08:30 AM 41.5°F5.3°C 35.8°F2.1°C 80% 12.7 mph S20.4 kmh S 15.0 mph24.1 kmh 29.10 in985.4 mb 0.00 in0.0 mm 0.00 in/hr0.0 mm/hr 0.01 in0.3 mm
08:20 AM 41.0°F5.0°C 35.3°F1.8°C 80% 11.5 mph SE18.5 kmh SE 10.4 mph16.7 kmh 29.10 in985.4 mb 0.00 in0.0 mm 0.00 in/hr0.0 mm/hr 0.01 in0.3 mm
08:10 AM 41.2°F5.1°C 35.8°F2.1°C 81% 11.5 mph S18.5 kmh S 19.6 mph31.5 kmh 29.11 in985.8 mb 0.00 in0.0 mm 0.00 in/hr0.0 mm/hr 0.01 in0.3 mm
08:00 AM 40.8°F4.9°C 35.4°F1.9°C 81% 11.5 mph SE18.5 kmh SE 16.1 mph25.9 kmh 29.11 in985.8 mb 0.00 in0.0 mm 0.00 in/hr0.0 mm/hr 0.01 in0.3 mm
07:50 AM 40.8°F4.9°C 35.4°F1.9°C 81% 12.7 mph SE20.4 kmh SE 17.3 mph27.8 kmh 29.11 in985.8 mb 0.00 in0.0 mm 0.00 in/hr0.0 mm/hr 0.01 in0.3 mm
07:40 AM 40.5°F4.7°C 35.1°F1.7°C 81% 11.5 mph SE18.5 kmh SE 18.4 mph29.6 kmh 29.11 in985.8 mb 0.00 in0.0 mm 0.00 in/hr0.0 mm/hr 0.01 in0.3 mm
07:30 AM 39.7°F4.3°C 34.7°F1.5°C 82% 11.5 mph SSE18.5 kmh SSE 16.1 mph25.9 kmh 29.12 in986.1 mb 0.00 in0.0 mm 0.00 in/hr0.0 mm/hr 0.01 in0.3 mm
07:20 AM 39.6°F4.2°C 34.5°F1.4°C 82% 10.4 mph SSE16.7 kmh SSE 12.7 mph20.4 kmh 29.12 in986.1 mb 0.00 in0.0 mm 0.00 in/hr0.0 mm/hr 0.01 in0.3 mm
07:10 AM 39.6°F4.2°C 34.5°F1.4°C 82% 11.5 mph S18.5 kmh S 10.4 mph16.7 kmh 29.12 in986.1 mb 0.00 in0.0 mm 0.00 in/hr0.0 mm/hr 0.01 in0.3 mm
07:00 AM 39.4°F4.1°C 34.3°F1.3°C 82% 11.5 mph SE18.5 kmh SE 13.8 mph22.2 kmh 29.12 in986.1 mb 0.00 in0.0 mm 0.00 in/hr0.0 mm/hr 0.01 in0.3 mm
06:50 AM 39.2°F4.0°C 34.2°F1.2°C 82% 9.2 mph SSE14.8 kmh SSE 16.1 mph25.9 kmh 29.13 in986.5 mb 0.00 in0.0 mm 0.00 in/hr0.0 mm/hr 0.01 in0.3 mm
06:40 AM 39.4°F4.1°C 34.3°F1.3°C 82% 9.2 mph S14.8 kmh S 11.5 mph18.5 kmh 29.13 in986.5 mb 0.00 in0.0 mm 0.00 in/hr0.0 mm/hr 0.01 in0.3 mm
06:30 AM 39.4°F4.1°C 34.3°F1.3°C 82% 9.2 mph SSE14.8 kmh SSE 15.0 mph24.1 kmh 29.15 in987.1 mb 0.00 in0.0 mm 0.00 in/hr0.0 mm/hr 0.01 in0.3 mm
06:20 AM 39.4°F4.1°C 34.3°F1.3°C 82% 10.4 mph SE16.7 kmh SE 12.7 mph20.4 kmh 29.15 in987.1 mb 0.00 in0.0 mm 0.00 in/hr0.0 mm/hr 0.01 in0.3 mm
06:10 AM 39.4°F4.1°C 34.3°F1.3°C 82% 8.1 mph S13.0 kmh S 12.7 mph20.4 kmh 29.16 in987.5 mb 0.00 in0.0 mm 0.00 in/hr0.0 mm/hr 0.01 in0.3 mm
06:00 AM 39.4°F4.1°C 34.6°F1.4°C 83% 11.5 mph SE18.5 kmh SE 12.7 mph20.4 kmh 29.16 in987.5 mb 0.00 in0.0 mm 0.00 in/hr0.0 mm/hr 0.01 in0.3 mm
05:50 AM 39.0°F3.9°C 34.3°F1.3°C 83% 10.4 mph SE16.7 kmh SE 13.8 mph22.2 kmh 29.16 in987.5 mb 0.00 in0.0 mm 0.00 in/hr0.0 mm/hr 0.01 in0.3 mm
05:40 AM 38.8°F3.8°C 34.1°F1.2°C 83% 9.2 mph SE14.8 kmh SE 11.5 mph18.5 kmh 29.16 in987.5 mb 0.00 in0.0 mm 0.00 in/hr0.0 mm/hr 0.01 in0.3 mm
05:30 AM 39.0°F3.9°C 34.3°F1.3°C 83% 8.1 mph W13.0 kmh W 9.2 mph14.8 kmh 29.17 in987.8 mb 0.00 in0.0 mm 0.00 in/hr0.0 mm/hr 0.01 in0.3 mm
05:20 AM 38.8°F3.8°C 34.1°F1.2°C 83% 8.1 mph SE13.0 kmh SE 9.2 mph14.8 kmh 29.17 in987.8 mb 0.00 in0.0 mm 0.00 in/hr0.0 mm/hr 0.01 in0.3 mm
05:10 AM 38.7°F3.7°C 33.9°F1.1°C 83% 9.2 mph SE14.8 kmh SE 11.5 mph18.5 kmh 29.19 in988.5 mb 0.00 in0.0 mm 0.00 in/hr0.0 mm/hr 0.01 in0.3 mm
05:00 AM 38.7°F3.7°C 33.9°F1.1°C 83% 8.1 mph SE13.0 kmh SE 11.5 mph18.5 kmh 29.19 in988.5 mb 0.00 in0.0 mm 0.00 in/hr0.0 mm/hr 0.01 in0.3 mm
04:50 AM 38.3°F3.5°C 33.6°F0.9°C 83% 9.2 mph SSE14.8 kmh SSE 11.5 mph18.5 kmh 29.18 in988.1 mb 0.00 in0.0 mm 0.00 in/hr0.0 mm/hr 0.01 in0.3 mm
04:40 AM 38.1°F3.4°C 33.7°F0.9°C 84% 9.2 mph SSE14.8 kmh SSE 11.5 mph18.5 kmh 29.18 in988.1 mb 0.00 in0.0 mm 0.00 in/hr0.0 mm/hr 0.01 in0.3 mm
04:30 AM 37.9°F3.3°C 33.5°F0.8°C 84% 9.2 mph SSE14.8 kmh SSE 12.7 mph20.4 kmh 29.20 in988.8 mb 0.00 in0.0 mm 0.00 in/hr0.0 mm/hr 0.01 in0.3 mm
04:20 AM 37.9°F3.3°C 33.5°F0.8°C 84% 9.2 mph SE14.8 kmh SE 11.5 mph18.5 kmh 29.20 in988.8 mb 0.00 in0.0 mm 0.00 in/hr0.0 mm/hr 0.01 in0.3 mm
04:10 AM 37.6°F3.1°C 33.2°F0.7°C 84% 9.2 mph SSE14.8 kmh SSE 10.4 mph16.7 kmh 29.22 in989.5 mb 0.00 in0.0 mm 0.00 in/hr0.0 mm/hr 0.01 in0.3 mm
04:00 AM 37.6°F3.1°C 33.2°F0.7°C 84% 9.2 mph SE14.8 kmh SE 9.2 mph14.8 kmh 29.22 in989.5 mb 0.00 in0.0 mm 0.00 in/hr0.0 mm/hr 0.00 in0.0 mm
03:50 AM 37.4°F3.0°C 33.0°F0.6°C 84% 9.2 mph SSE14.8 kmh SSE 12.7 mph20.4 kmh 29.25 in990.5 mb 0.00 in0.0 mm 0.00 in/hr0.0 mm/hr 0.00 in0.0 mm
03:40 AM 37.4°F3.0°C 33.0°F0.6°C 84% 6.9 mph SE11.1 kmh SE 10.4 mph16.7 kmh 29.25 in990.5 mb 0.00 in0.0 mm 0.00 in/hr0.0 mm/hr 0.00 in0.0 mm
03:30 AM 37.2°F2.9°C 32.8°F0.4°C 84% 6.9 mph SE11.1 kmh SE 11.5 mph18.5 kmh 29.25 in990.5 mb 0.00 in0.0 mm 0.00 in/hr0.0 mm/hr 0.00 in0.0 mm
03:20 AM 37.2°F2.9°C 32.8°F0.4°C 84% 6.9 mph S11.1 kmh S 10.4 mph16.7 kmh 29.25 in990.5 mb 0.00 in0.0 mm 0.00 in/hr0.0 mm/hr 0.00 in0.0 mm
03:10 AM 37.2°F2.9°C 32.8°F0.4°C 84% 6.9 mph ESE11.1 kmh ESE 6.9 mph11.1 kmh 29.27 in991.2 mb 0.00 in0.0 mm 0.00 in/hr0.0 mm/hr 0.00 in0.0 mm
03:00 AM 37.2°F2.9°C 32.8°F0.4°C 84% 6.9 mph SSE11.1 kmh SSE 8.1 mph13.0 kmh 29.27 in991.2 mb 0.00 in0.0 mm 0.00 in/hr0.0 mm/hr 0.00 in0.0 mm
02:50 AM 36.9°F2.7°C 32.5°F0.3°C 84% 6.9 mph SE11.1 kmh SE 8.1 mph13.0 kmh 29.29 in991.9 mb 0.00 in0.0 mm 0.00 in/hr0.0 mm/hr 0.00 in0.0 mm
02:40 AM 36.9°F2.7°C 32.5°F0.3°C 84% 6.9 mph SE11.1 kmh SE 9.2 mph14.8 kmh 29.29 in991.9 mb 0.00 in0.0 mm 0.00 in/hr0.0 mm/hr 0.00 in0.0 mm
02:30 AM 36.9°F2.7°C 32.5°F0.3°C 84% 6.9 mph SSE11.1 kmh SSE 9.2 mph14.8 kmh 29.30 in992.2 mb 0.00 in0.0 mm 0.00 in/hr0.0 mm/hr 0.00 in0.0 mm
02:20 AM 36.9°F2.7°C 32.5°F0.3°C 84% 5.8 mph SE9.3 kmh SE 9.2 mph14.8 kmh 29.30 in992.2 mb 0.00 in0.0 mm 0.00 in/hr0.0 mm/hr 0.00 in0.0 mm
02:10 AM 36.7°F2.6°C 32.3°F0.2°C 84% 6.9 mph SSE11.1 kmh SSE 5.8 mph9.3 kmh 29.32 in992.9 mb 0.00 in0.0 mm 0.00 in/hr0.0 mm/hr 0.00 in0.0 mm
02:00 AM 36.7°F2.6°C 32.3°F0.2°C 84% 6.9 mph SSE11.1 kmh SSE 11.5 mph18.5 kmh 29.32 in992.9 mb 0.00 in0.0 mm 0.00 in/hr0.0 mm/hr 0.00 in0.0 mm
01:50 AM 36.5°F2.5°C 32.1°F0.1°C 84% 6.9 mph SE11.1 kmh SE 9.2 mph14.8 kmh 29.33 in993.2 mb 0.00 in0.0 mm 0.00 in/hr0.0 mm/hr 0.00 in0.0 mm
01:40 AM 36.5°F2.5°C 32.1°F0.1°C 84% 6.9 mph SE11.1 kmh SE 6.9 mph11.1 kmh 29.33 in993.2 mb 0.00 in0.0 mm 0.00 in/hr0.0 mm/hr 0.00 in0.0 mm
01:30 AM 36.1°F2.3°C 31.8°F-0.1°C 84% 6.9 mph SSE11.1 kmh SSE 4.6 mph7.4 kmh 29.34 in993.6 mb 0.00 in0.0 mm 0.00 in/hr0.0 mm/hr 0.00 in0.0 mm
01:20 AM 36.1°F2.3°C 31.8°F-0.1°C 84% 6.9 mph SE11.1 kmh SE 6.9 mph11.1 kmh 29.34 in993.6 mb 0.00 in0.0 mm 0.00 in/hr0.0 mm/hr 0.00 in0.0 mm
01:10 AM 36.0°F2.2°C 31.6°F-0.2°C 84% 6.9 mph SSE11.1 kmh SSE 8.1 mph13.0 kmh 29.36 in994.2 mb 0.00 in0.0 mm 0.00 in/hr0.0 mm/hr 0.00 in0.0 mm
01:00 AM 35.8°F2.1°C 31.4°F-0.3°C 84% 6.9 mph SE11.1 kmh SE 6.9 mph11.1 kmh 29.36 in994.2 mb 0.00 in0.0 mm 0.00 in/hr0.0 mm/hr 0.00 in0.0 mm
12:50 AM 35.8°F2.1°C 31.4°F-0.3°C 84% 5.8 mph ESE9.3 kmh ESE 10.4 mph16.7 kmh 29.36 in994.2 mb 0.00 in0.0 mm 0.00 in/hr0.0 mm/hr 0.00 in0.0 mm
12:40 AM 35.8°F2.1°C 31.4°F-0.3°C 84% 5.8 mph SSE9.3 kmh SSE 5.8 mph9.3 kmh 29.36 in994.2 mb 0.00 in0.0 mm 0.00 in/hr0.0 mm/hr 0.00 in0.0 mm
12:30 AM 35.8°F2.1°C 31.4°F-0.3°C 84% 5.8 mph SSE9.3 kmh SSE 6.9 mph11.1 kmh 29.38 in994.9 mb 0.00 in0.0 mm 0.00 in/hr0.0 mm/hr 0.00 in0.0 mm
12:20 AM 36.0°F2.2°C 31.6°F-0.2°C 84% 4.6 mph SE7.4 kmh SE 4.6 mph7.4 kmh 29.38 in994.9 mb 0.00 in0.0 mm 0.00 in/hr0.0 mm/hr 0.00 in0.0 mm
12:10 AM 36.0°F2.2°C 31.6°F-0.2°C 84% 4.6 mph SE7.4 kmh SE 6.9 mph11.1 kmh 29.39 in995.3 mb 0.00 in0.0 mm 0.00 in/hr0.0 mm/hr 0.00 in0.0 mm
12:00 AM 36.1°F2.3°C 31.8°F-0.1°C 84% 4.6 mph SSE7.4 kmh SSE 8.1 mph13.0 kmh 29.39 in995.3 mb 0.00 in0.0 mm 0.00 in/hr0.0 mm/hr 0.00 in0.0 mm